createdAt,value
2018-04-24T00:01:38.426Z,18.10
2018-04-24T00:04:06.318Z,17.47
2018-04-24T00:06:33.894Z,15.70
2018-04-24T00:09:01.435Z,15.10
2018-04-24T00:11:29.007Z,15.37
2018-04-24T00:13:56.557Z,16.70
2018-04-24T00:16:24.203Z,14.97
2018-04-24T00:18:51.795Z,16.07
2018-04-24T00:21:19.444Z,15.50
2018-04-24T00:23:47.012Z,15.30
2018-04-24T00:26:14.669Z,15.07
2018-04-24T00:28:42.333Z,15.77
2018-04-24T00:31:09.905Z,15.03
2018-04-24T00:33:38.941Z,14.43
2018-04-24T00:36:06.553Z,14.60
2018-04-24T00:38:34.088Z,15.50
2018-04-24T00:41:01.623Z,14.10
2018-04-24T00:43:29.226Z,13.80
2018-04-24T00:45:56.746Z,13.80
2018-04-24T00:48:24.285Z,13.00
2018-04-24T00:50:52.594Z,12.17
2018-04-24T00:53:32.054Z,10.90
2018-04-24T00:55:59.643Z,10.20
2018-04-24T00:58:27.181Z,11.23
2018-04-24T01:00:54.748Z,10.13
2018-04-24T01:03:24.003Z,10.33
2018-04-24T01:05:51.565Z,10.27
2018-04-24T01:11:09.875Z,10.73
2018-04-24T01:13:37.514Z,10.50
2018-04-24T01:16:05.075Z,9.90
2018-04-24T01:18:32.634Z,10.00
2018-04-24T01:21:00.170Z,10.27
2018-04-24T01:23:27.705Z,10.20
2018-04-24T01:25:55.279Z,10.50
2018-04-24T01:28:22.866Z,10.30
2018-04-24T01:30:50.430Z,10.37
2018-04-24T01:33:17.971Z,10.93
2018-04-24T01:35:45.508Z,12.30
2018-04-24T01:38:13.058Z,14.93
2018-04-24T01:40:41.383Z,19.67
2018-04-24T01:43:08.947Z,22.00
2018-04-24T01:45:36.578Z,20.37
2018-04-24T01:48:04.137Z,21.90
2018-04-24T01:50:31.662Z,19.40
2018-04-24T01:52:59.960Z,20.93
2018-04-24T01:55:27.503Z,22.97
2018-04-24T01:57:55.827Z,22.67
2018-04-24T02:00:23.369Z,20.60
2018-04-24T02:02:50.947Z,21.93
2018-04-24T02:05:18.496Z,22.80
2018-04-24T02:07:46.039Z,21.20
2018-04-24T02:10:13.669Z,23.57
2018-04-24T02:12:42.085Z,24.63
2018-04-24T02:15:09.620Z,22.27
2018-04-24T02:17:38.236Z,24.20
2018-04-24T02:20:05.822Z,22.97
2018-04-24T02:22:33.449Z,25.20
2018-04-24T02:25:01.808Z,23.80
2018-04-24T02:27:29.423Z,22.70
2018-04-24T02:29:57.008Z,22.57
2018-04-24T02:32:25.334Z,22.33
2018-04-24T02:34:52.901Z,22.87
2018-04-24T02:37:20.490Z,21.37
2018-04-24T02:39:48.031Z,21.63
2018-04-24T02:42:15.687Z,19.87
2018-04-24T02:44:43.346Z,22.93
2018-04-24T02:47:10.907Z,20.63
2018-04-24T02:49:38.461Z,22.37
2018-04-24T02:52:06.022Z,21.23
2018-04-24T02:54:33.598Z,23.03
2018-04-24T02:57:01.151Z,22.03
2018-04-24T02:59:28.731Z,21.90
2018-04-24T03:01:56.302Z,21.53
2018-04-24T03:04:24.586Z,21.57
2018-04-24T03:06:52.930Z,21.77
2018-04-24T03:09:20.493Z,22.50
2018-04-24T03:11:48.194Z,21.83
2018-04-24T03:14:15.690Z,21.57
2018-04-24T03:16:43.279Z,21.53
2018-04-24T03:19:11.815Z,22.03
2018-04-24T03:21:39.363Z,23.87
2018-04-24T03:24:06.914Z,24.10
2018-04-24T03:26:34.492Z,22.83
2018-04-24T03:29:02.030Z,23.70
2018-04-24T03:31:29.578Z,22.37
2018-04-24T03:33:57.949Z,25.13
2018-04-24T03:36:26.271Z,23.40
2018-04-24T03:38:53.823Z,22.90
2018-04-24T03:41:21.426Z,23.20
2018-04-24T03:43:49.069Z,23.40
2018-04-24T03:46:16.599Z,22.50
2018-04-24T03:48:44.169Z,20.70
2018-04-24T03:51:11.735Z,21.97
2018-04-24T03:53:39.428Z,23.27
2018-04-24T03:56:07.029Z,22.83
2018-04-24T03:58:35.303Z,20.80
2018-04-24T04:01:03.619Z,22.07
2018-04-24T04:03:31.169Z,20.73
2018-04-24T04:05:58.764Z,21.20
2018-04-24T04:08:26.520Z,19.27
2018-04-24T04:10:54.074Z,20.40
2018-04-24T04:13:21.617Z,21.43
2018-04-24T04:15:49.167Z,19.53
2018-04-24T04:18:28.579Z,18.50
2018-04-24T04:21:08.037Z,18.47
2018-04-24T04:23:47.622Z,16.80
2018-04-24T04:26:15.942Z,16.30
2018-04-24T04:28:43.506Z,17.17
2018-04-24T04:31:12.006Z,16.97
2018-04-24T04:33:39.569Z,17.50
2018-04-24T04:36:07.114Z,15.37
2018-04-24T04:38:34.711Z,16.90
2018-04-24T04:41:02.270Z,16.70
2018-04-24T04:43:29.826Z,17.90
2018-04-24T04:45:57.378Z,16.60
2018-04-24T04:48:24.935Z,17.40
2018-04-24T04:50:52.470Z,17.50
2018-04-24T04:53:20.010Z,17.23
2018-04-24T04:55:47.592Z,16.90
2018-04-24T04:58:15.171Z,17.20
2018-04-24T05:00:42.833Z,18.67
2018-04-24T05:03:10.529Z,18.80
2018-04-24T05:05:38.880Z,19.30
2018-04-24T05:08:06.512Z,17.00
2018-04-24T05:10:34.077Z,18.37
2018-04-24T05:13:01.639Z,18.10
2018-04-24T05:15:29.245Z,18.37
2018-04-24T05:17:57.581Z,17.83
2018-04-24T05:20:25.105Z,19.23
2018-04-24T05:22:52.933Z,17.57
2018-04-24T05:25:20.482Z,19.07
2018-04-24T05:27:48.015Z,19.80
2018-04-24T05:30:15.658Z,17.87
2018-04-24T05:32:43.214Z,18.90
2018-04-24T05:35:10.859Z,18.20
2018-04-24T05:37:39.216Z,17.47
2018-04-24T05:40:06.748Z,18.40
2018-04-24T05:42:34.329Z,17.20
2018-04-24T05:45:01.894Z,18.57
2018-04-24T05:47:30.224Z,18.20
2018-04-24T05:49:57.757Z,18.67
2018-04-24T05:52:26.391Z,18.90
2018-04-24T05:54:54.655Z,18.60
2018-04-24T05:57:22.177Z,18.50
2018-04-24T05:59:50.512Z,19.20
2018-04-24T06:02:18.042Z,22.63
2018-04-24T06:04:45.630Z,22.37
2018-04-24T06:07:13.186Z,20.97
2018-04-24T06:09:40.761Z,22.37
2018-04-24T06:12:09.331Z,21.43
2018-04-24T06:14:36.863Z,23.07
2018-04-24T06:17:04.396Z,23.67
2018-04-24T06:19:31.968Z,23.80
2018-04-24T06:21:59.497Z,21.17
2018-04-24T06:24:27.816Z,24.17
2018-04-24T06:26:55.395Z,23.80
2018-04-24T06:29:22.940Z,21.70
2018-04-24T06:31:50.695Z,24.77
2018-04-24T06:34:19.160Z,25.00
2018-04-24T06:36:46.770Z,23.37
2018-04-24T06:42:07.452Z,24.83
2018-04-24T06:44:35.015Z,26.17
2018-04-24T06:47:02.615Z,25.80
2018-04-24T06:49:30.953Z,26.67
2018-04-24T06:51:58.750Z,27.50
2018-04-24T06:54:27.080Z,26.30
2018-04-24T06:56:54.613Z,25.90
2018-04-24T06:59:22.923Z,23.00
2018-04-24T07:01:50.482Z,20.57
2018-04-24T07:04:18.001Z,18.23
2018-04-24T07:06:45.712Z,16.73
2018-04-24T07:09:13.257Z,18.40
2018-04-24T07:11:40.819Z,17.00
2018-04-24T07:14:08.360Z,16.50
2018-04-24T07:16:36.674Z,16.83
2018-04-24T07:19:04.250Z,16.67
2018-04-24T07:21:31.810Z,15.90
2018-04-24T07:23:59.417Z,16.20
2018-04-24T07:26:26.982Z,15.77
2018-04-24T07:28:54.514Z,15.90
2018-04-24T07:31:22.066Z,16.43
2018-04-24T07:33:51.139Z,15.87
2018-04-24T07:36:18.777Z,17.20
2018-04-24T07:38:46.367Z,15.00
2018-04-24T07:41:13.931Z,14.90
2018-04-24T07:43:41.557Z,15.33
2018-04-24T07:46:09.131Z,13.03
2018-04-24T07:48:36.703Z,12.40
2018-04-24T07:51:04.284Z,12.70
2018-04-24T07:53:31.842Z,11.33
2018-04-24T07:56:00.380Z,10.93
2018-04-24T07:58:27.918Z,11.83
2018-04-24T08:00:55.469Z,11.97
2018-04-24T08:03:23.061Z,11.07
2018-04-24T08:05:50.635Z,12.93
2018-04-24T08:08:18.361Z,14.20
2018-04-24T08:10:46.728Z,12.13
2018-04-24T08:13:14.316Z,14.40
2018-04-24T08:15:41.867Z,13.47
2018-04-24T08:18:09.515Z,11.70
2018-04-24T08:20:37.071Z,13.70
2018-04-24T08:23:04.672Z,13.03
2018-04-24T08:25:32.234Z,13.33
2018-04-24T08:27:59.777Z,13.30
2018-04-24T08:30:27.363Z,13.33
2018-04-24T08:32:54.987Z,11.80
2018-04-24T08:35:22.547Z,11.83
2018-04-24T08:37:50.101Z,11.17
2018-04-24T08:40:17.677Z,10.70
2018-04-24T08:42:45.212Z,12.10
2018-04-24T08:45:12.791Z,10.20
2018-04-24T08:47:40.343Z,6.73
2018-04-24T08:50:07.935Z,6.47
2018-04-24T08:52:35.511Z,6.10
2018-04-24T08:55:03.147Z,8.60
2018-04-24T08:57:30.698Z,6.83
2018-04-24T08:59:58.241Z,6.90
2018-04-24T09:02:25.758Z,6.50
2018-04-24T09:04:53.763Z,6.50
2018-04-24T09:07:21.306Z,6.63
2018-04-24T09:09:49.644Z,5.73
2018-04-24T09:12:17.195Z,7.10
2018-04-24T09:14:44.741Z,5.70
2018-04-24T09:17:12.296Z,6.80
2018-04-24T09:19:39.837Z,6.80
2018-04-24T09:22:07.401Z,7.80
2018-04-24T09:24:34.946Z,7.20
2018-04-24T09:27:02.623Z,7.30
2018-04-24T09:29:30.887Z,6.70
2018-04-24T09:31:58.431Z,6.97
2018-04-24T09:34:25.979Z,6.50
2018-04-24T09:36:54.271Z,6.53
2018-04-24T09:39:21.822Z,6.50
2018-04-24T09:41:50.133Z,6.80
2018-04-24T09:44:17.658Z,5.13
2018-04-24T09:46:45.969Z,5.87
2018-04-24T09:49:13.515Z,6.87
2018-04-24T09:51:41.090Z,6.20
2018-04-24T09:54:08.646Z,6.30
2018-04-24T09:56:36.247Z,6.03
2018-04-24T09:59:04.563Z,6.47
2018-04-24T10:01:32.179Z,6.90
2018-04-24T10:04:01.249Z,6.20
2018-04-24T10:06:28.797Z,5.80
2018-04-24T10:08:56.388Z,7.70
2018-04-24T10:11:24.693Z,5.60
2018-04-24T10:13:53.037Z,6.07
2018-04-24T10:16:22.094Z,6.00
2018-04-24T10:18:49.677Z,5.60
2018-04-24T10:21:17.347Z,5.50
2018-04-24T10:23:44.888Z,5.60
2018-04-24T10:26:12.403Z,6.10
2018-04-24T10:28:40.732Z,5.67
2018-04-24T10:31:08.381Z,5.73
2018-04-24T10:33:35.923Z,4.70
2018-04-24T10:36:03.514Z,5.37
2018-04-24T10:38:31.097Z,5.50
2018-04-24T10:40:58.659Z,5.73
2018-04-24T10:43:26.995Z,5.70
2018-04-24T10:45:54.566Z,6.10
2018-04-24T10:48:22.140Z,5.10
2018-04-24T10:50:49.804Z,4.87
2018-04-24T10:53:17.378Z,4.80
2018-04-24T10:55:44.931Z,5.00
2018-04-24T10:58:12.495Z,5.00
2018-04-24T11:00:40.147Z,4.90
2018-04-24T11:03:07.719Z,4.30
2018-04-24T11:05:35.280Z,5.10
2018-04-24T11:08:02.850Z,4.73
2018-04-24T11:10:31.190Z,4.93
2018-04-24T11:12:58.863Z,4.20
2018-04-24T11:15:26.533Z,4.77
2018-04-24T11:17:54.856Z,5.30
2018-04-24T11:20:22.437Z,3.90
2018-04-24T11:22:49.963Z,6.20
2018-04-24T11:25:18.263Z,4.73
2018-04-24T11:27:45.804Z,5.20
2018-04-24T11:30:14.147Z,4.30
2018-04-24T11:32:41.702Z,5.00
2018-04-24T11:35:10.737Z,3.70
2018-04-24T11:37:38.259Z,4.60
2018-04-24T11:40:06.790Z,3.87
2018-04-24T11:42:34.305Z,4.50
2018-04-24T11:45:03.392Z,5.20
2018-04-24T11:47:30.908Z,3.83
2018-04-24T11:49:58.527Z,4.60
2018-04-24T11:52:26.933Z,4.17
2018-04-24T11:54:54.515Z,4.73
2018-04-24T11:57:22.106Z,3.50
2018-04-24T11:59:49.705Z,3.90
2018-04-24T12:02:17.290Z,4.20
2018-04-24T12:04:44.862Z,4.00
2018-04-24T12:07:12.450Z,3.30
2018-04-24T12:09:39.971Z,3.60
2018-04-24T12:12:07.547Z,3.53
2018-04-24T12:14:35.189Z,3.63
2018-04-24T12:17:02.734Z,3.80
2018-04-24T12:19:30.325Z,5.27
2018-04-24T12:21:57.854Z,3.80
2018-04-24T12:24:25.517Z,3.77
2018-04-24T12:26:53.039Z,4.27
2018-04-24T12:29:21.360Z,4.67
2018-04-24T12:31:48.902Z,4.17
2018-04-24T12:34:16.418Z,4.27
2018-04-24T12:36:43.958Z,3.97
2018-04-24T12:39:11.529Z,3.73
2018-04-24T12:41:39.126Z,4.83
2018-04-24T12:44:07.572Z,4.40
2018-04-24T12:46:35.101Z,4.40
2018-04-24T12:49:02.668Z,4.03
2018-04-24T12:51:30.353Z,4.03
2018-04-24T12:53:57.947Z,4.30
2018-04-24T12:56:26.270Z,4.10
2018-04-24T12:58:53.809Z,4.47
2018-04-24T13:01:21.353Z,5.27
2018-04-24T13:03:49.020Z,4.40
2018-04-24T13:06:16.502Z,4.07
2018-04-24T13:08:44.079Z,4.70
2018-04-24T13:11:11.714Z,5.73
2018-04-24T13:13:39.273Z,4.40
2018-04-24T13:16:06.822Z,4.33
2018-04-24T13:18:34.399Z,4.47
2018-04-24T13:21:01.946Z,4.50
2018-04-24T13:23:29.552Z,4.50
2018-04-24T13:25:57.109Z,3.87
2018-04-24T13:28:25.449Z,4.33
2018-04-24T13:30:53.031Z,3.37
2018-04-24T13:33:20.594Z,3.57
2018-04-24T13:35:48.134Z,3.80
2018-04-24T13:38:15.714Z,3.20
2018-04-24T13:40:43.239Z,3.40
2018-04-24T13:43:10.920Z,3.60
2018-04-24T13:45:38.411Z,3.50
2018-04-24T13:48:06.025Z,3.53
2018-04-24T13:50:33.536Z,3.97
2018-04-24T13:53:01.103Z,3.90
2018-04-24T13:55:29.498Z,3.83
2018-04-24T13:57:57.007Z,3.50
2018-04-24T14:00:24.642Z,3.87
2018-04-24T14:02:52.182Z,3.30
2018-04-24T14:05:19.747Z,3.37
2018-04-24T14:07:47.294Z,3.50
2018-04-24T14:10:14.876Z,3.33
2018-04-24T14:12:42.417Z,3.33
2018-04-24T14:15:09.983Z,2.93
2018-04-24T14:17:37.590Z,3.60
2018-04-24T14:20:05.942Z,3.87
2018-04-24T14:22:33.472Z,3.17
2018-04-24T14:25:01.059Z,3.90
2018-04-24T14:27:28.596Z,3.60
2018-04-24T14:29:56.151Z,3.87
2018-04-24T14:32:23.725Z,4.20
2018-04-24T14:34:51.333Z,4.60
2018-04-24T14:37:18.980Z,3.37
2018-04-24T14:39:46.497Z,4.00
2018-04-24T14:42:14.035Z,3.77
2018-04-24T14:44:42.380Z,4.30
2018-04-24T14:47:10.212Z,4.13
2018-04-24T14:49:37.787Z,4.73
2018-04-24T14:52:05.374Z,4.37
2018-04-24T14:54:32.924Z,4.90
2018-04-24T14:57:00.449Z,4.10
2018-04-24T14:59:28.003Z,4.63
2018-04-24T15:01:55.530Z,4.77
2018-04-24T15:04:24.082Z,5.30
2018-04-24T15:06:51.606Z,4.80
2018-04-24T15:09:19.154Z,4.60
2018-04-24T15:11:46.742Z,4.70
2018-04-24T15:14:14.278Z,4.23
2018-04-24T15:16:41.844Z,4.93
2018-04-24T15:19:09.393Z,5.23
2018-04-24T15:21:36.945Z,5.83
2018-04-24T15:24:04.523Z,6.20
2018-04-24T15:26:32.293Z,5.67
2018-04-24T15:28:59.906Z,4.83
2018-04-24T15:31:28.258Z,5.57
2018-04-24T15:33:57.327Z,5.23
2018-04-24T15:36:25.665Z,4.90
2018-04-24T15:38:53.230Z,4.87
2018-04-24T15:41:21.543Z,4.60
2018-04-24T15:43:49.123Z,5.50
2018-04-24T15:46:16.754Z,6.00
2018-04-24T15:48:44.316Z,5.27
2018-04-24T15:51:11.911Z,6.17
2018-04-24T15:53:39.539Z,5.40
2018-04-24T15:56:07.065Z,5.17
2018-04-24T15:58:35.373Z,5.37
2018-04-24T16:01:03.028Z,5.43
2018-04-24T16:03:30.584Z,5.83
2018-04-24T16:05:58.566Z,6.90
2018-04-24T16:08:26.153Z,6.53
2018-04-24T16:10:53.711Z,5.80
2018-04-24T16:13:21.263Z,5.53
2018-04-24T16:15:48.848Z,6.90
2018-04-24T16:18:16.390Z,6.53
2018-04-24T16:20:44.034Z,6.20
2018-04-24T16:23:11.637Z,7.17
2018-04-24T16:25:39.984Z,7.50
2018-04-24T16:28:07.557Z,7.37
2018-04-24T16:30:35.106Z,8.30
2018-04-24T16:33:02.667Z,9.17
2018-04-24T16:35:30.255Z,8.50
2018-04-24T16:37:58.565Z,8.10
2018-04-24T16:40:26.146Z,7.77
2018-04-24T16:42:53.724Z,9.37
2018-04-24T16:45:21.274Z,8.50
2018-04-24T16:47:48.832Z,8.20
2018-04-24T16:50:16.510Z,8.33
2018-04-24T16:52:44.057Z,8.03
2018-04-24T16:55:11.736Z,7.70
2018-04-24T16:57:39.310Z,7.03
2018-04-24T17:00:06.878Z,8.13
2018-04-24T17:02:35.231Z,8.20
2018-04-24T17:05:02.854Z,8.37
2018-04-24T17:07:30.443Z,8.63
2018-04-24T17:09:59.055Z,8.53
2018-04-24T17:12:27.366Z,8.27
2018-04-24T17:14:54.979Z,9.70
2018-04-24T17:17:23.318Z,9.70
2018-04-24T17:19:50.862Z,12.27
2018-04-24T17:22:18.524Z,11.00
2018-04-24T17:24:46.049Z,11.57
2018-04-24T17:27:14.372Z,12.30
2018-04-24T17:29:41.956Z,12.43
2018-04-24T17:32:09.482Z,12.40
2018-04-24T17:34:37.030Z,11.73
2018-04-24T17:37:04.699Z,12.80
2018-04-24T17:39:32.494Z,12.97
2018-04-24T17:42:00.045Z,12.30
2018-04-24T17:44:27.619Z,13.27
2018-04-24T17:46:55.143Z,12.77
2018-04-24T17:49:23.374Z,13.87
2018-04-24T17:51:51.003Z,12.50
2018-04-24T17:54:18.554Z,13.13
2018-04-24T17:56:46.197Z,13.67
2018-04-24T17:59:13.714Z,12.70
2018-04-24T18:01:42.443Z,15.63
2018-04-24T18:04:10.031Z,13.43
2018-04-24T18:06:37.559Z,13.40
2018-04-24T18:09:05.161Z,11.97
2018-04-24T18:11:34.337Z,12.30
2018-04-24T18:14:01.896Z,14.20
2018-04-24T18:16:29.753Z,13.93
2018-04-24T18:18:57.454Z,14.23
2018-04-24T18:21:25.043Z,14.27
2018-04-24T18:23:52.631Z,15.57
2018-04-24T18:26:20.175Z,15.17
2018-04-24T18:28:47.694Z,15.57
2018-04-24T18:31:15.823Z,15.50
2018-04-24T18:33:44.193Z,15.13
2018-04-24T18:36:11.754Z,14.53
2018-04-24T18:38:39.313Z,16.07
2018-04-24T18:41:06.882Z,16.87
2018-04-24T18:43:34.847Z,15.70
2018-04-24T18:46:04.584Z,16.10
2018-04-24T18:48:32.245Z,16.07
2018-04-24T18:50:59.774Z,18.40
2018-04-24T18:53:27.377Z,17.93
2018-04-24T18:55:54.935Z,17.30
2018-04-24T18:58:22.582Z,16.70
2018-04-24T19:00:50.149Z,17.73
2018-04-24T19:03:17.804Z,17.43
2018-04-24T19:05:45.386Z,17.80
2018-04-24T19:08:13.095Z,17.80
2018-04-24T19:10:40.670Z,17.23
2018-04-24T19:13:08.267Z,18.30
2018-04-24T19:15:35.919Z,19.33
2018-04-24T19:18:04.974Z,18.20
2018-04-24T19:20:32.938Z,19.23
2018-04-24T19:23:00.537Z,22.27
2018-04-24T19:25:33.676Z,18.20
2018-04-24T19:28:01.256Z,19.87
2018-04-24T19:30:28.804Z,19.00
2018-04-24T19:32:56.346Z,20.17
2018-04-24T19:35:23.942Z,18.50
2018-04-24T19:37:51.658Z,22.13
2018-04-24T19:40:25.570Z,21.63
2018-04-24T19:42:53.926Z,20.93
2018-04-24T19:45:22.230Z,22.80
2018-04-24T19:47:50.633Z,20.90
2018-04-24T19:50:20.103Z,21.90
2018-04-24T19:52:48.426Z,21.47
2018-04-24T19:55:21.812Z,21.70
2018-04-24T19:57:49.340Z,19.50
2018-04-24T20:00:16.947Z,19.07
2018-04-24T20:02:44.504Z,18.57
2018-04-24T20:05:12.031Z,20.83
2018-04-24T20:07:39.597Z,20.00
2018-04-24T20:10:07.349Z,19.60
2018-04-24T20:12:34.940Z,20.50
2018-04-24T20:15:02.489Z,18.70
2018-04-24T20:17:30.080Z,21.37
2018-04-24T20:19:58.020Z,18.90
2018-04-24T20:22:25.739Z,20.00
2018-04-24T20:24:54.086Z,19.90
2018-04-24T20:27:21.619Z,21.33
2018-04-24T20:29:49.201Z,21.10
2018-04-24T20:32:16.831Z,20.30
2018-04-24T20:34:45.178Z,19.67
2018-04-24T20:37:13.491Z,20.80
2018-04-24T20:39:41.059Z,21.73
2018-04-24T20:42:08.719Z,21.77
2018-04-24T20:44:36.684Z,20.83
2018-04-24T20:47:04.400Z,22.10
2018-04-24T20:49:32.850Z,22.97
2018-04-24T20:52:00.426Z,22.43
2018-04-24T20:54:28.013Z,22.83
2018-04-24T20:56:55.587Z,23.80
2018-04-24T20:59:23.582Z,25.70
2018-04-24T21:01:51.175Z,25.60
2018-04-24T21:04:18.712Z,23.70
2018-04-24T21:06:46.352Z,24.53
2018-04-24T21:09:13.893Z,24.77
2018-04-24T21:11:41.504Z,25.57
2018-04-24T21:14:09.179Z,24.00
2018-04-24T21:16:37.717Z,27.50
2018-04-24T21:19:05.312Z,28.60
2018-04-24T21:21:32.949Z,29.00
2018-04-24T21:24:00.542Z,28.70
2018-04-24T21:26:29.587Z,27.83
2018-04-24T21:28:57.158Z,28.50
2018-04-24T21:31:24.732Z,29.87
2018-04-24T21:33:52.304Z,31.53
2018-04-24T21:36:20.066Z,29.43
2018-04-24T21:38:47.720Z,31.27
2018-04-24T21:41:15.295Z,31.13
2018-04-24T21:43:43.627Z,30.43
2018-04-24T21:46:11.189Z,31.83
2018-04-24T21:48:38.736Z,31.10
2018-04-24T21:51:06.322Z,31.40
2018-04-24T21:53:33.971Z,36.07
2018-04-24T21:56:01.552Z,33.17
2018-04-24T21:58:29.223Z,32.00
2018-04-24T22:00:56.799Z,33.87
2018-04-24T22:03:24.434Z,32.47
2018-04-24T22:05:52.114Z,36.33
2018-04-24T22:08:19.736Z,35.77
2018-04-24T22:10:47.293Z,36.77
2018-04-24T22:13:14.988Z,33.27
2018-04-24T22:15:42.614Z,35.87
2018-04-24T22:18:10.175Z,31.77
2018-04-24T22:20:37.741Z,33.97
2018-04-24T22:23:05.340Z,32.37
2018-04-24T22:25:32.993Z,32.70
2018-04-24T22:28:00.576Z,34.27
2018-04-24T22:30:28.873Z,32.33
2018-04-24T22:32:56.422Z,31.60
2018-04-24T22:35:24.779Z,35.33
2018-04-24T22:37:52.441Z,31.77
2018-04-24T22:40:20.054Z,36.27
2018-04-24T22:42:47.619Z,32.80
2018-04-24T22:45:15.187Z,35.03
2018-04-24T22:47:42.767Z,33.97
2018-04-24T22:50:11.155Z,36.27
2018-04-24T22:52:39.510Z,35.30
2018-04-24T22:55:07.040Z,34.63
2018-04-24T22:57:34.591Z,36.03
2018-04-24T23:00:02.182Z,33.80
2018-04-24T23:02:29.757Z,36.50
2018-04-24T23:04:57.415Z,34.70
2018-04-24T23:07:25.043Z,37.37
2018-04-24T23:09:54.175Z,36.60
2018-04-24T23:12:34.345Z,38.27
2018-04-24T23:15:13.863Z,40.27
2018-04-24T23:17:53.221Z,38.37
2018-04-24T23:20:20.251Z,38.57
2018-04-24T23:22:47.893Z,40.77
2018-04-24T23:25:15.391Z,40.50
2018-04-24T23:27:42.930Z,36.70
2018-04-24T23:30:10.507Z,38.03
2018-04-24T23:32:38.151Z,42.47
2018-04-24T23:35:05.714Z,41.77
2018-04-24T23:37:33.272Z,42.07
2018-04-24T23:40:00.833Z,38.43
2018-04-24T23:42:28.388Z,43.00
2018-04-24T23:44:55.927Z,42.40
2018-04-24T23:47:23.594Z,42.67
2018-04-24T23:49:51.281Z,43.73
2018-04-24T23:52:18.833Z,43.40
2018-04-24T23:54:46.498Z,43.53
2018-04-24T23:57:14.121Z,40.57
2018-04-24T23:59:41.694Z,47.40
